Time;durP1;ratioP1;P1;durP2;ratioP2;P2;SDS_P1;SDS_P2;PMS_P1;PMS_P2;Temp;Humidity;BMP_temperature;BMP_pressure;BME280_temperature;BME280_humidity;BME280_pressure;Samples;Min_cycle;Max_cycle;Signal;HPM_P1;HPM_P2
2023/07/23 00:00:13;;;;;;;8.00;5.55;;;14.90;99.90;;;;;;5152359;27;20103;-75
2023/07/23 00:02:38;;;;;;;9.43;5.75;;;14.90;99.90;;;;;;5142721;27;20037;-74
2023/07/23 00:05:04;;;;;;;9.02;5.75;;;14.90;99.90;;;;;;5146712;27;20537;-73
2023/07/23 00:07:30;;;;;;;8.88;5.57;;;14.90;99.90;;;;;;5148104;27;20042;-74
2023/07/23 00:09:55;;;;;;;8.80;5.72;;;14.90;99.90;;;;;;5146488;27;20046;-73
2023/07/23 00:12:21;;;;;;;10.43;5.53;;;14.80;99.90;;;;;;5140832;27;20450;-74
2023/07/23 00:14:46;;;;;;;11.68;5.68;;;14.80;99.90;;;;;;5141150;27;20371;-74
2023/07/23 00:17:12;;;;;;;9.18;5.57;;;14.80;99.90;;;;;;5147606;27;20064;-76
2023/07/23 00:19:37;;;;;;;12.35;6.40;;;14.80;99.90;;;;;;5151130;27;20030;-75
2023/07/23 00:22:03;;;;;;;11.95;6.00;;;14.70;99.90;;;;;;5142488;27;20042;-74
2023/07/23 00:24:28;;;;;;;10.77;5.97;;;14.70;99.90;;;;;;5138849;27;20050;-75
2023/07/23 00:26:54;;;;;;;9.30;5.93;;;14.70;99.90;;;;;;5139226;27;20555;-74
2023/07/23 00:29:20;;;;;;;9.07;5.70;;;14.70;99.90;;;;;;5143162;27;20099;-74
2023/07/23 00:31:46;;;;;;;9.68;5.57;;;14.70;99.90;;;;;;5143012;27;20620;-71
2023/07/23 00:34:11;;;;;;;8.75;5.47;;;14.70;99.90;;;;;;5144946;27;20126;-74
2023/07/23 00:36:37;;;;;;;8.90;5.32;;;14.70;99.90;;;;;;5145853;27;20034;-75
2023/07/23 00:39:04;;;;;;;8.48;5.57;;;14.60;99.90;;;;;;5151805;27;20030;-75
2023/07/23 00:41:30;;;;;;;9.88;5.82;;;14.70;99.90;;;;;;5150682;27;20497;-73
2023/07/23 00:43:56;;;;;;;8.43;6.13;;;14.60;99.90;;;;;;5133214;27;20034;-74
2023/07/23 00:46:22;;;;;;;10.07;6.03;;;14.60;99.90;;;;;;5127748;27;20042;-77
2023/07/23 00:48:47;;;;;;;8.50;5.97;;;14.60;99.90;;;;;;5150794;27;20043;-74
2023/07/23 00:51:13;;;;;;;9.60;5.90;;;14.60;99.90;;;;;;5146842;27;20413;-74
2023/07/23 00:53:39;;;;;;;11.20;6.15;;;14.60;99.90;;;;;;5151502;27;20031;-74
2023/07/23 00:56:05;;;;;;;12.00;6.57;;;14.60;99.90;;;;;;5141538;27;20085;-72
2023/07/23 00:58:31;;;;;;;9.45;6.65;;;14.60;99.90;;;;;;5129938;27;20493;-74
2023/07/23 01:00:56;;;;;;;9.82;6.28;;;14.60;99.90;;;;;;5137505;27;20046;-74
2023/07/23 01:03:22;;;;;;;10.20;6.13;;;14.60;99.90;;;;;;5131025;27;20134;-73
2023/07/23 01:05:50;;;;;;;9.43;6.68;;;14.50;99.90;;;;;;5140695;27;20042;-74
2023/07/23 01:08:16;;;;;;;11.30;6.78;;;14.50;99.90;;;;;;5138846;27;20443;-74
2023/07/23 01:10:42;;;;;;;10.07;6.80;;;14.60;99.90;;;;;;5133942;27;20035;-74
2023/07/23 01:13:07;;;;;;;10.52;6.30;;;14.60;99.90;;;;;;5151410;27;20395;-75
2023/07/23 01:15:33;;;;;;;9.23;6.63;;;14.60;99.90;;;;;;5149092;27;20046;-74
2023/07/23 01:18:01;;;;;;;10.40;7.05;;;14.60;99.90;;;;;;5149296;27;20129;-76
2023/07/23 01:20:27;;;;;;;9.55;6.18;;;14.50;99.90;;;;;;5145885;27;20038;-75
2023/07/23 01:22:52;;;;;;;12.55;6.80;;;14.50;99.90;;;;;;5137505;27;20087;-73
2023/07/23 01:25:18;;;;;;;11.65;7.15;;;14.50;99.90;;;;;;5149059;27;20108;-76
2023/07/23 01:27:44;;;;;;;10.57;5.95;;;14.50;99.90;;;;;;5139529;27;20562;-75
2023/07/23 01:30:12;;;;;;;9.13;6.28;;;14.50;99.90;;;;;;5145772;27;20030;-75
2023/07/23 01:32:39;;;;;;;8.27;6.13;;;14.60;99.90;;;;;;5122642;27;20034;-74
2023/07/23 01:35:14;;;;;;;10.55;6.20;;;14.60;99.90;;;;;;5147478;27;20035;-75
2023/07/23 01:37:41;;;;;;;9.63;6.50;;;14.50;99.90;;;;;;5146629;27;20038;-75
2023/07/23 01:40:07;;;;;;;9.10;6.05;;;14.50;99.90;;;;;;5150631;27;20155;-75
2023/07/23 01:42:33;;;;;;;8.73;6.05;;;14.60;99.90;;;;;;5142255;27;20069;-76
2023/07/23 01:45:03;;;;;;;8.43;5.50;;;14.50;99.90;;;;;;5142646;27;20054;-76
2023/07/23 01:47:29;;;;;;;9.90;5.93;;;14.50;99.90;;;;;;5136968;27;20046;-76
2023/07/23 01:49:55;;;;;;;8.73;6.28;;;14.50;99.90;;;;;;5149087;27;20034;-76
2023/07/23 01:52:20;;;;;;;8.60;5.85;;;14.60;99.90;;;;;;5150401;27;20095;-76
2023/07/23 01:54:46;;;;;;;8.40;5.50;;;14.50;99.90;;;;;;5145488;27;20446;-76
2023/07/23 01:57:11;;;;;;;8.88;5.50;;;14.50;99.90;;;;;;5131087;27;20047;-75
2023/07/23 01:59:37;;;;;;;8.35;5.53;;;14.60;99.90;;;;;;5139720;27;20035;-76
2023/07/23 02:02:06;;;;;;;9.30;5.82;;;14.60;99.90;;;;;;5148218;27;20030;-75
2023/07/23 02:04:31;;;;;;;8.88;5.63;;;14.60;99.90;;;;;;5144972;27;20540;-76
2023/07/23 02:06:57;;;;;;;7.53;5.05;;;14.60;99.90;;;;;;5134825;27;20035;-75
2023/07/23 02:09:23;;;;;;;7.55;5.20;;;14.60;99.90;;;;;;5144292;27;20042;-75
2023/07/23 02:11:48;;;;;;;8.77;5.03;;;14.60;99.90;;;;;;5146755;27;20049;-76
2023/07/23 02:14:14;;;;;;;6.90;5.20;;;14.60;99.90;;;;;;5145812;27;20042;-75
2023/07/23 02:16:39;;;;;;;8.52;5.40;;;14.60;99.90;;;;;;5143015;27;20113;-76
2023/07/23 02:19:05;;;;;;;11.48;5.80;;;14.60;99.90;;;;;;5138500;27;20391;-77
2023/07/23 02:21:31;;;;;;;7.78;5.70;;;14.60;99.90;;;;;;5131710;27;20061;-77
2023/07/23 02:23:56;;;;;;;10.70;5.72;;;14.60;99.90;;;;;;5123688;27;20053;-78
2023/07/23 02:26:22;;;;;;;9.55;5.70;;;14.60;99.90;;;;;;5145045;27;20118;-77
2023/07/23 02:28:47;;;;;;;7.80;5.00;;;14.60;99.90;;;;;;5147185;27;20035;-76
2023/07/23 02:31:13;;;;;;;7.25;5.60;;;14.60;99.90;;;;;;5145243;27;20274;-76
2023/07/23 02:33:39;;;;;;;7.03;5.30;;;14.60;99.90;;;;;;5136466;27;20035;-76
2023/07/23 02:36:04;;;;;;;9.90;5.32;;;14.50;99.90;;;;;;5141292;27;20071;-76
2023/07/23 02:38:30;;;;;;;6.65;5.43;;;14.50;99.90;;;;;;5143546;27;20083;-74
2023/07/23 02:40:56;;;;;;;8.57;5.80;;;14.60;99.90;;;;;;5144150;27;20035;-76
2023/07/23 02:43:22;;;;;;;10.98;6.00;;;14.50;99.90;;;;;;5150391;27;20083;-76
2023/07/23 02:45:47;;;;;;;9.32;5.95;;;14.60;99.90;;;;;;5146271;27;20209;-78
2023/07/23 02:48:13;;;;;;;10.27;5.88;;;14.60;99.90;;;;;;5140199;27;20039;-76
2023/07/23 02:50:39;;;;;;;8.45;5.72;;;14.50;99.90;;;;;;5140502;27;20042;-77
2023/07/23 02:53:05;;;;;;;9.25;6.05;;;14.50;99.90;;;;;;5149073;27;20055;-77
2023/07/23 02:55:32;;;;;;;7.32;5.50;;;14.60;99.90;;;;;;5150570;27;20561;-76
2023/07/23 02:58:00;;;;;;;9.40;6.00;;;14.50;99.90;;;;;;5142251;27;20222;-76
2023/07/23 03:00:27;;;;;;;9.93;5.78;;;14.50;99.90;;;;;;5147396;27;20035;-77
2023/07/23 03:02:53;;;;;;;9.40;6.20;;;14.50;99.90;;;;;;5146015;27;20039;-76
2023/07/23 03:05:19;;;;;;;13.75;6.50;;;15.40;99.90;;;;;;5128236;27;20522;-76
2023/07/23 03:07:44;;;;;;;9.48;6.25;;;14.50;99.90;;;;;;5144643;27;20062;-75
2023/07/23 03:10:10;;;;;;;8.82;5.90;;;14.50;99.90;;;;;;5147781;27;20046;-77
2023/07/23 03:12:35;;;;;;;11.35;6.50;;;14.50;99.90;;;;;;5128989;27;20107;-76
2023/07/23 03:15:01;;;;;;;9.98;6.40;;;14.50;99.90;;;;;;5147402;27;20083;-76
2023/07/23 03:17:27;;;;;;;9.80;6.20;;;14.50;99.90;;;;;;5150804;27;20426;-76
2023/07/23 03:19:52;;;;;;;10.20;6.68;;;14.50;99.90;;;;;;5144196;27;20031;-76
2023/07/23 03:22:18;;;;;;;8.10;6.38;;;14.50;99.90;;;;;;5153216;27;20505;-75
2023/07/23 03:24:44;;;;;;;11.25;6.63;;;14.50;99.90;;;;;;5150844;27;20557;-76
2023/07/23 03:27:10;;;;;;;9.73;7.03;;;14.60;99.90;;;;;;5152954;27;20165;-75
2023/07/23 03:29:35;;;;;;;10.98;6.28;;;14.50;99.90;;;;;;5149665;27;20067;-75
2023/07/23 03:32:01;;;;;;;9.90;6.72;;;14.50;99.90;;;;;;5144806;27;20046;-76
2023/07/23 03:34:27;;;;;;;9.68;6.35;;;14.50;99.90;;;;;;5143922;27;20561;-76
2023/07/23 03:36:52;;;;;;;10.00;6.53;;;14.50;99.90;;;;;;5145486;27;20114;-76
2023/07/23 03:39:18;;;;;;;11.15;7.25;;;14.50;99.90;;;;;;5154196;27;20114;-76
2023/07/23 03:41:47;;;;;;;11.15;7.05;;;14.50;99.90;;;;;;5145738;27;20042;-75
2023/07/23 03:44:13;;;;;;;11.77;7.05;;;14.50;99.90;;;;;;5147637;27;20043;-75
2023/07/23 03:46:44;;;;;;;10.32;7.35;;;14.50;99.90;;;;;;5149288;27;20046;-75
2023/07/23 03:49:10;;;;;;;11.40;7.53;;;14.50;99.90;;;;;;5143882;27;20082;-76
2023/07/23 03:51:35;;;;;;;11.05;7.15;;;14.50;99.90;;;;;;5147373;27;20533;-75
2023/07/23 03:54:01;;;;;;;9.98;6.72;;;14.50;99.90;;;;;;5149103;27;20065;-76
2023/07/23 03:56:26;;;;;;;11.70;7.82;;;14.50;99.90;;;;;;5141626;27;20058;-76
2023/07/23 03:58:52;;;;;;;13.52;8.25;;;14.50;99.90;;;;;;5140673;27;20062;-77
2023/07/23 04:01:17;;;;;;;12.93;7.65;;;14.50;99.90;;;;;;5147728;27;20497;-76
2023/07/23 04:03:43;;;;;;;12.10;7.50;;;14.50;99.90;;;;;;5139939;27;20042;-76
2023/07/23 04:06:09;;;;;;;12.80;7.47;;;14.50;99.90;;;;;;5138829;27;20048;-76
2023/07/23 04:08:34;;;;;;;13.45;7.40;;;14.50;99.90;;;;;;5147886;27;20485;-76
2023/07/23 04:11:00;;;;;;;13.82;7.72;;;14.50;99.90;;;;;;5147120;27;20039;-76
2023/07/23 04:13:25;;;;;;;11.35;7.80;;;14.50;99.90;;;;;;5147004;27;20058;-75
2023/07/23 04:15:51;;;;;;;12.05;7.80;;;14.50;99.90;;;;;;5149363;27;20113;-77
2023/07/23 04:18:17;;;;;;;12.60;8.18;;;14.50;99.90;;;;;;5142565;27;20578;-75
2023/07/23 04:20:43;;;;;;;12.35;7.40;;;14.50;99.90;;;;;;5138162;27;20542;-77
2023/07/23 04:23:08;;;;;;;14.10;7.60;;;14.50;99.90;;;;;;5146417;27;20039;-76
2023/07/23 04:25:34;;;;;;;11.20;7.60;;;14.50;99.90;;;;;;5147521;27;20038;-75
2023/07/23 04:27:59;;;;;;;10.43;7.65;;;14.50;99.90;;;;;;5135187;27;20045;-76
2023/07/23 04:30:26;;;;;;;14.38;7.65;;;14.50;99.90;;;;;;5152349;27;20095;-76
2023/07/23 04:32:52;;;;;;;10.13;7.15;;;14.50;99.90;;;;;;5143557;27;20042;-76
2023/07/23 04:35:18;;;;;;;11.55;7.20;;;14.50;99.90;;;;;;5148839;27;20125;-76
2023/07/23 04:37:43;;;;;;;12.52;7.20;;;14.50;99.90;;;;;;5139701;27;20110;-76
2023/07/23 04:40:09;;;;;;;12.48;8.25;;;14.50;99.90;;;;;;5120875;27;20462;-76
2023/07/23 04:42:35;;;;;;;11.32;7.68;;;14.50;99.90;;;;;;5144440;27;20034;-75
2023/07/23 04:45:00;;;;;;;12.13;7.57;;;14.50;99.90;;;;;;5149721;27;20493;-76
2023/07/23 04:47:26;;;;;;;10.77;7.60;;;14.50;99.90;;;;;;5148714;27;20042;-75
2023/07/23 04:49:51;;;;;;;14.55;7.28;;;14.50;99.90;;;;;;5148616;27;20042;-76
2023/07/23 04:52:18;;;;;;;10.93;7.57;;;14.50;99.90;;;;;;5149929;27;20037;-76
2023/07/23 04:54:44;;;;;;;9.38;6.95;;;14.60;99.90;;;;;;5146938;27;20378;-75
2023/07/23 04:57:09;;;;;;;11.30;7.53;;;14.60;99.90;;;;;;5134523;27;20042;-75
2023/07/23 04:59:35;;;;;;;11.15;7.13;;;14.60;99.90;;;;;;5149246;27;20038;-75
2023/07/23 05:02:00;;;;;;;13.90;7.60;;;14.60;99.90;;;;;;5135000;27;20046;-75
2023/07/23 05:04:26;;;;;;;11.82;7.63;;;14.60;99.90;;;;;;5144859;27;20066;-76
2023/07/23 05:06:52;;;;;;;11.57;7.68;;;14.60;99.90;;;;;;5123469;27;20038;-76
2023/07/23 05:09:18;;;;;;;11.57;7.72;;;14.60;99.90;;;;;;5144523;27;20053;-76
2023/07/23 05:11:43;;;;;;;10.88;7.38;;;14.60;99.90;;;;;;5147699;27;20078;-76
2023/07/23 05:14:09;;;;;;;12.65;7.43;;;14.60;99.90;;;;;;5150617;27;20197;-76
2023/07/23 05:16:34;;;;;;;12.52;7.68;;;14.60;99.90;;;;;;5149965;27;20405;-76
2023/07/23 05:19:00;;;;;;;14.60;7.95;;;14.60;99.90;;;;;;5149764;27;20037;-75
2023/07/23 05:21:26;;;;;;;13.93;8.07;;;14.60;99.90;;;;;;5135106;27;20091;-75
2023/07/23 05:23:51;;;;;;;13.05;8.27;;;14.70;99.90;;;;;;5131458;27;20457;-76
2023/07/23 05:26:17;;;;;;;14.45;9.02;;;14.70;99.90;;;;;;5131997;27;20050;-75
2023/07/23 05:28:42;;;;;;;13.07;9.05;;;14.70;99.90;;;;;;5147862;27;20038;-76
2023/07/23 05:31:08;;;;;;;14.80;8.55;;;14.70;99.90;;;;;;5151186;27;20497;-76
2023/07/23 05:33:33;;;;;;;12.77;8.20;;;14.70;99.90;;;;;;5145944;27;20033;-75
2023/07/23 05:35:59;;;;;;;14.60;9.30;;;14.70;99.90;;;;;;5143337;27;20050;-76
2023/07/23 05:38:26;;;;;;;11.07;8.50;;;14.70;99.90;;;;;;5142407;27;20046;-75
2023/07/23 05:40:58;;;;;;;13.00;9.00;;;14.80;99.90;;;;;;5140040;27;20178;-75
2023/07/23 05:43:24;;;;;;;15.27;9.00;;;14.80;99.90;;;;;;5136641;27;20034;-76
2023/07/23 05:45:50;;;;;;;12.73;8.70;;;14.80;99.90;;;;;;5138200;27;20379;-75
2023/07/23 05:48:15;;;;;;;13.43;8.82;;;14.90;99.90;;;;;;5124897;27;20050;-76
2023/07/23 05:50:41;;;;;;;12.10;8.65;;;14.80;99.90;;;;;;5127892;27;20042;-76
2023/07/23 05:53:06;;;;;;;12.23;9.02;;;14.80;99.90;;;;;;5144258;27;20039;-75
2023/07/23 05:55:32;;;;;;;12.75;8.40;;;14.90;99.90;;;;;;5144075;27;20027;-76
2023/07/23 05:57:57;;;;;;;14.98;9.98;;;14.90;99.90;;;;;;5134537;27;20027;-74
2023/07/23 06:00:23;;;;;;;14.77;8.57;;;14.90;99.90;;;;;;5128397;27;20034;-75
2023/07/23 06:02:48;;;;;;;13.30;8.88;;;14.90;99.90;;;;;;5126792;27;20039;-76
2023/07/23 06:05:14;;;;;;;13.95;8.50;;;15.00;99.90;;;;;;5142371;27;20045;-75
2023/07/23 06:07:43;;;;;;;10.77;8.20;;;15.00;99.90;;;;;;5142217;27;20426;-75
2023/07/23 06:10:08;;;;;;;13.65;9.18;;;15.00;99.90;;;;;;5140517;27;20118;-76
2023/07/23 06:12:34;;;;;;;12.43;8.05;;;15.00;99.90;;;;;;5145434;27;20121;-76
2023/07/23 06:15:00;;;;;;;14.77;9.00;;;15.00;99.90;;;;;;5141064;27;20578;-75
2023/07/23 06:17:25;;;;;;;16.38;9.75;;;15.00;99.90;;;;;;5139993;27;20034;-75
2023/07/23 06:19:51;;;;;;;13.23;8.90;;;15.10;99.90;;;;;;5148015;27;20046;-76
2023/07/23 06:22:16;;;;;;;15.10;9.32;;;15.10;99.90;;;;;;5151620;27;20035;-76
2023/07/23 06:24:42;;;;;;;13.25;9.30;;;15.10;99.90;;;;;;5140594;27;20077;-76
2023/07/23 06:27:08;;;;;;;12.10;9.30;;;15.10;99.90;;;;;;5142684;27;20509;-75
2023/07/23 06:29:33;;;;;;;14.52;9.32;;;15.10;99.90;;;;;;5144669;27;20039;-76
2023/07/23 06:31:59;;;;;;;12.90;9.05;;;15.20;99.90;;;;;;5141993;27;20390;-76
2023/07/23 06:34:24;;;;;;;11.90;9.27;;;15.20;99.90;;;;;;5139942;27;20054;-76
2023/07/23 06:36:50;;;;;;;14.48;9.15;;;15.20;99.90;;;;;;5139430;27;20037;-75
2023/07/23 06:39:15;;;;;;;12.65;9.30;;;15.20;99.90;;;;;;5144170;27;20501;-77
2023/07/23 06:41:41;;;;;;;12.25;9.02;;;15.30;99.90;;;;;;5142530;27;20043;-77
2023/07/23 06:44:07;;;;;;;14.90;9.35;;;15.30;99.90;;;;;;5146087;27;20068;-76
2023/07/23 06:46:32;;;;;;;15.70;10.43;;;15.30;99.90;;;;;;5138658;27;20043;-77
2023/07/23 06:48:58;;;;;;;14.52;9.43;;;15.30;99.90;;;;;;5143001;27;20387;-77
2023/07/23 06:51:25;;;;;;;13.35;9.45;;;15.40;99.90;;;;;;5140419;27;20122;-77
2023/07/23 06:53:51;;;;;;;12.45;9.82;;;15.40;99.90;;;;;;5142988;27;20118;-76
2023/07/23 06:56:18;;;;;;;12.55;9.27;;;15.50;99.90;;;;;;5150837;27;20125;-75
2023/07/23 06:58:43;;;;;;;14.13;9.57;;;15.50;99.90;;;;;;5153813;27;20079;-77
2023/07/23 07:01:09;;;;;;;13.68;9.50;;;15.60;99.90;;;;;;5144382;27;20031;-76
2023/07/23 07:03:35;;;;;;;17.45;10.32;;;15.60;99.90;;;;;;5148555;27;20498;-76
2023/07/23 07:06:01;;;;;;;19.10;10.40;;;15.60;99.90;;;;;;5152615;27;20096;-76
2023/07/23 07:08:28;;;;;;;14.57;10.13;;;15.60;99.90;;;;;;5152693;27;20083;-78
2023/07/23 07:11:02;;;;;;;14.15;10.18;;;15.70;99.90;;;;;;5143765;27;20031;-77
2023/07/23 07:13:28;;;;;;;15.73;10.02;;;15.60;99.90;;;;;;5150935;27;20058;-77
2023/07/23 07:15:53;;;;;;;13.10;9.48;;;15.60;99.90;;;;;;5150187;27;20034;-78
2023/07/23 07:18:19;;;;;;;17.08;10.23;;;15.60;99.90;;;;;;5148281;27;20373;-77
2023/07/23 07:20:51;;;;;;;12.52;9.65;;;15.60;99.90;;;;;;5153166;27;20043;-77
2023/07/23 07:23:17;;;;;;;13.75;9.50;;;15.60;99.90;;;;;;5133476;27;20038;-76
2023/07/23 07:25:42;;;;;;;15.07;10.02;;;15.70;99.90;;;;;;5151899;27;20153;-77
2023/07/23 07:28:08;;;;;;;14.15;9.30;;;15.70;99.90;;;;;;5147969;27;20043;-77
2023/07/23 07:30:33;;;;;;;15.10;9.82;;;15.70;99.90;;;;;;5151219;27;20047;-77
2023/07/23 07:32:59;;;;;;;14.48;9.15;;;15.70;99.90;;;;;;5148665;27;20061;-77
2023/07/23 07:35:25;;;;;;;19.30;9.82;;;15.80;99.90;;;;;;5141349;27;20039;-78
2023/07/23 07:37:51;;;;;;;12.65;9.55;;;15.80;99.90;;;;;;5135310;27;20047;-77
2023/07/23 07:40:16;;;;;;;16.30;9.68;;;15.80;99.90;;;;;;5139331;27;20453;-78
2023/07/23 07:42:42;;;;;;;14.60;9.38;;;15.80;99.90;;;;;;5149009;27;20229;-78
2023/07/23 07:45:07;;;;;;;14.63;9.63;;;15.80;99.90;;;;;;5152452;27;20034;-77
2023/07/23 07:47:33;;;;;;;14.82;9.60;;;15.90;99.90;;;;;;5154675;27;20034;-77
2023/07/23 07:49:58;;;;;;;17.02;9.60;;;15.90;99.90;;;;;;5146957;27;20039;-77
2023/07/23 07:52:24;;;;;;;14.23;9.57;;;15.90;99.90;;;;;;5144916;27;20035;-77
2023/07/23 07:54:49;;;;;;;14.82;9.95;;;16.00;99.90;;;;;;5141000;27;20450;-77
2023/07/23 07:57:15;;;;;;;14.85;9.60;;;16.00;99.90;;;;;;5132549;27;20035;-78
2023/07/23 07:59:42;;;;;;;14.75;9.52;;;16.00;99.90;;;;;;5117793;27;20402;-78
2023/07/23 08:02:08;;;;;;;13.70;9.82;;;16.00;99.90;;;;;;5151735;27;20062;-78
2023/07/23 08:04:34;;;;;;;16.30;9.85;;;15.90;99.90;;;;;;5145654;27;20522;-77
2023/07/23 08:06:59;;;;;;;16.13;9.52;;;15.90;99.90;;;;;;5143089;27;20172;-78
2023/07/23 08:09:25;;;;;;;15.98;9.27;;;15.90;99.90;;;;;;5149800;27;20062;-80
2023/07/23 08:11:51;;;;;;;17.35;9.30;;;15.90;99.90;;;;;;5146726;27;20042;-78
2023/07/23 08:14:19;;;;;;;16.05;9.60;;;15.90;99.90;;;;;;5149554;27;20039;-78
2023/07/23 08:16:47;;;;;;;16.65;10.10;;;16.00;99.90;;;;;;5143321;27;20438;-79
2023/07/23 08:19:12;;;;;;;16.75;9.98;;;15.90;99.90;;;;;;5146457;27;20043;-78
2023/07/23 08:21:38;;;;;;;17.70;10.10;;;16.00;99.90;;;;;;5143334;27;20050;-78
2023/07/23 08:24:04;;;;;;;16.58;9.27;;;16.00;99.90;;;;;;5142655;27;20512;-80
2023/07/23 08:26:32;;;;;;;15.60;9.57;;;16.00;99.90;;;;;;5119471;27;20126;-78
2023/07/23 08:29:04;;;;;;;13.82;10.38;;;16.10;99.90;;;;;;5132270;27;20043;-79
2023/07/23 08:31:29;;;;;;;15.57;10.73;;;16.10;99.90;;;;;;5132701;27;20160;-78
2023/07/23 08:33:56;;;;;;;16.95;10.95;;;16.10;99.90;;;;;;5136729;27;20348;-79
2023/07/23 08:36:22;;;;;;;15.38;10.68;;;16.10;99.90;;;;;;5122198;27;20032;-77
2023/07/23 08:38:48;;;;;;;13.70;10.70;;;16.00;99.90;;;;;;5138858;27;20087;-77
2023/07/23 08:41:46;;;;;;;13.25;10.50;;;16.00;99.90;;;;;;5136542;27;20031;-77
2023/07/23 08:44:40;;;;;;;13.02;10.55;;;16.00;99.90;;;;;;5138134;27;20111;-79
2023/07/23 08:47:13;;;;;;;13.87;9.63;;;15.90;99.90;;;;;;5138451;27;20038;-77
2023/07/23 08:49:40;;;;;;;14.25;10.05;;;15.90;99.90;;;;;;5131266;27;20046;-77
2023/07/23 08:52:06;;;;;;;15.70;10.07;;;15.90;99.90;;;;;;5135667;27;20117;-77
2023/07/23 08:54:32;;;;;;;13.63;9.85;;;16.00;99.90;;;;;;5136036;27;20480;-77
2023/07/23 08:56:59;;;;;;;14.35;9.75;;;15.90;99.90;;;;;;5121080;27;20060;-77
2023/07/23 08:59:26;;;;;;;12.80;9.25;;;16.00;99.90;;;;;;5133627;27;20031;-75
2023/07/23 09:01:53;;;;;;;11.50;9.10;;;16.00;99.90;;;;;;5134145;27;20059;-77
2023/07/23 09:04:18;;;;;;;13.32;9.63;;;16.00;99.90;;;;;;5114460;27;20126;-76
2023/07/23 09:06:44;;;;;;;14.70;9.95;;;16.00;99.90;;;;;;5115087;27;20118;-75
2023/07/23 09:09:12;;;;;;;12.13;9.68;;;16.00;99.90;;;;;;5137833;27;20042;-76
2023/07/23 09:11:38;;;;;;;15.05;10.65;;;16.00;99.90;;;;;;5122519;27;20038;-78
2023/07/23 09:14:08;;;;;;;15.98;9.80;;;16.00;99.90;;;;;;5136624;27;20023;-78
2023/07/23 09:16:39;;;;;;;12.18;9.80;;;16.10;99.90;;;;;;5140437;27;20096;-76
2023/07/23 09:19:07;;;;;;;15.00;9.85;;;16.10;99.90;;;;;;5135069;27;20043;-75
2023/07/23 09:21:32;;;;;;;11.20;9.15;;;16.10;99.90;;;;;;5136678;27;20038;-77
2023/07/23 09:23:58;;;;;;;15.07;10.23;;;16.10;99.90;;;;;;5142944;27;20110;-77
2023/07/23 09:26:27;;;;;;;14.68;10.18;;;16.10;99.90;;;;;;5149094;27;20145;-76
2023/07/23 09:28:57;;;;;;;13.55;9.40;;;16.10;99.90;;;;;;5141328;27;20402;-76
2023/07/23 09:31:29;;;;;;;14.05;10.15;;;16.20;99.90;;;;;;5143616;27;20497;-76
2023/07/23 09:33:56;;;;;;;13.85;9.27;;;16.20;99.90;;;;;;5134273;27;20489;-76
2023/07/23 09:36:25;;;;;;;14.40;9.73;;;16.20;99.90;;;;;;5144688;27;20031;-76
2023/07/23 09:39:06;;;;;;;13.90;8.93;;;16.30;99.90;;;;;;5137686;27;20508;-76
2023/07/23 09:41:34;;;;;;;11.73;8.98;;;16.20;99.90;;;;;;5122021;27;20505;-76
2023/07/23 09:44:08;;;;;;;11.40;8.38;;;16.30;99.90;;;;;;5145097;27;20114;-75
2023/07/23 09:46:35;;;;;;;10.65;9.10;;;16.30;99.90;;;;;;5137238;27;20118;-75
2023/07/23 09:49:01;;;;;;;12.50;8.98;;;16.30;99.90;;;;;;5148880;27;20035;-75
2023/07/23 09:51:27;;;;;;;14.02;8.90;;;16.30;99.90;;;;;;5148999;27;20594;-79
2023/07/23 09:53:53;;;;;;;10.50;8.48;;;16.30;99.90;;;;;;5141534;27;20042;-77
2023/07/23 09:56:20;;;;;;;11.40;8.73;;;16.30;99.90;;;;;;5141015;27;20485;-76
2023/07/23 09:58:48;;;;;;;14.23;8.88;;;16.20;99.90;;;;;;5140703;27;20041;-77
2023/07/23 10:01:18;;;;;;;14.73;8.85;;;16.30;99.90;;;;;;5144196;27;20049;-76
2023/07/23 10:03:48;;;;;;;12.88;8.95;;;16.30;99.90;;;;;;5144040;27;20060;-77
2023/07/23 10:06:15;;;;;;;12.18;8.45;;;16.30;99.90;;;;;;5138774;27;20539;-77
2023/07/23 10:08:44;;;;;;;11.73;8.43;;;16.30;99.90;;;;;;5145911;27;20463;-77
2023/07/23 10:11:12;;;;;;;10.73;8.10;;;16.30;99.90;;;;;;5131764;27;20047;-77
2023/07/23 10:13:39;;;;;;;14.30;9.15;;;16.40;99.90;;;;;;5135469;27;20119;-77
2023/07/23 10:16:08;;;;;;;12.95;8.60;;;16.30;99.90;;;;;;5149111;27;20121;-77
2023/07/23 10:18:38;;;;;;;12.15;8.57;;;16.30;99.90;;;;;;5138471;27;20122;-77
2023/07/23 10:21:07;;;;;;;11.98;8.45;;;16.30;99.90;;;;;;5131974;27;20751;-76
2023/07/23 10:23:32;;;;;;;12.95;8.75;;;16.30;99.90;;;;;;5137620;27;20045;-77
2023/07/23 10:26:26;;;;;;;13.57;8.70;;;16.40;99.90;;;;;;5137346;27;20039;-77
2023/07/23 10:29:07;;;;;;;11.65;8.80;;;16.40;99.90;;;;;;5140532;27;20107;-76
2023/07/23 10:31:33;;;;;;;11.95;7.95;;;16.40;99.90;;;;;;5140901;27;20087;-78
2023/07/23 10:33:59;;;;;;;11.38;8.13;;;16.50;99.90;;;;;;5142312;27;20027;-78
2023/07/23 10:36:25;;;;;;;12.00;8.10;;;16.50;99.90;;;;;;5135111;27;20039;-78
2023/07/23 10:39:17;;;;;;;13.95;8.80;;;16.50;99.90;;;;;;5117565;27;20410;-77
2023/07/23 10:41:55;;;;;;;11.25;8.48;;;16.60;99.90;;;;;;5137540;27;20565;-76
2023/07/23 10:44:22;;;;;;;12.18;8.10;;;16.60;99.90;;;;;;5139774;27;20054;-77
2023/07/23 10:46:48;;;;;;;11.07;7.82;;;16.70;99.90;;;;;;5134746;27;20058;-78
2023/07/23 10:49:21;;;;;;;11.75;8.48;;;16.70;99.90;;;;;;5137121;27;20655;-77
2023/07/23 10:51:50;;;;;;;11.13;8.00;;;16.70;99.90;;;;;;5136345;27;20059;-75
2023/07/23 10:54:17;;;;;;;11.82;8.40;;;16.70;99.90;;;;;;5133099;27;20042;-77
2023/07/23 10:56:43;;;;;;;10.48;8.18;;;16.70;99.90;;;;;;5134228;27;20498;-75
2023/07/23 10:59:38;;;;;;;12.88;7.95;;;16.80;99.90;;;;;;5116535;27;20038;-77
2023/07/23 11:02:04;;;;;;;13.23;8.57;;;16.80;99.90;;;;;;5133819;27;20054;-76
2023/07/23 11:04:36;;;;;;;11.93;7.72;;;16.90;99.90;;;;;;5134897;27;20058;-77
2023/07/23 11:07:06;;;;;;;12.18;8.40;;;16.90;99.90;;;;;;5136206;27;20122;-77
2023/07/23 11:09:37;;;;;;;13.00;8.20;;;16.90;99.90;;;;;;5141068;27;20060;-77
2023/07/23 11:12:05;;;;;;;11.15;7.85;;;17.00;99.90;;;;;;5136049;27;20047;-76
2023/07/23 11:14:31;;;;;;;12.13;8.27;;;17.00;99.90;;;;;;5135707;27;20035;-77
2023/07/23 11:17:00;;;;;;;11.93;7.50;;;17.10;99.90;;;;;;5141030;27;20030;-77
2023/07/23 11:19:26;;;;;;;15.30;8.30;;;17.10;99.90;;;;;;5117251;27;20039;-77
2023/07/23 11:22:01;;;;;;;10.32;7.95;;;17.10;99.90;;;;;;5118174;27;20134;-77
2023/07/23 11:24:29;;;;;;;12.10;8.52;;;17.10;99.90;;;;;;5141017;27;20034;-76
2023/07/23 11:27:00;;;;;;;10.57;7.60;;;17.20;99.90;;;;;;5134608;27;20054;-77
2023/07/23 11:29:26;;;;;;;11.85;8.38;;;17.20;99.90;;;;;;5134422;27;20043;-76
2023/07/23 11:31:52;;;;;;;12.63;8.88;;;17.20;99.90;;;;;;5134300;27;20038;-76
2023/07/23 11:34:18;;;;;;;11.45;8.02;;;17.20;99.90;;;;;;5135317;27;20043;-77
2023/07/23 11:36:44;;;;;;;12.23;7.95;;;17.10;99.90;;;;;;5116725;27;20478;-78
2023/07/23 11:39:10;;;;;;;14.38;8.85;;;17.10;99.90;;;;;;5132743;27;20042;-76
2023/07/23 11:41:40;;;;;;;9.05;7.05;;;17.20;99.90;;;;;;5115857;27;20035;-76
2023/07/23 11:44:07;;;;;;;10.90;7.85;;;17.10;99.90;;;;;;5135172;27;20041;-77
2023/07/23 11:46:34;;;;;;;14.23;8.25;;;17.10;99.90;;;;;;5143680;27;20521;-77
2023/07/23 11:49:02;;;;;;;8.88;7.28;;;17.10;99.90;;;;;;5137267;27;20103;-76
2023/07/23 11:51:28;;;;;;;10.07;7.80;;;17.00;99.90;;;;;;5139836;27;20066;-77
2023/07/23 11:54:02;;;;;;;11.98;7.85;;;17.00;99.90;;;;;;5136035;27;20492;-76
2023/07/23 11:56:30;;;;;;;10.93;7.80;;;17.00;99.90;;;;;;5136327;27;20521;-76
2023/07/23 11:59:01;;;;;;;9.82;7.47;;;17.00;99.90;;;;;;5133166;27;20038;-76
2023/07/23 12:01:27;;;;;;;10.30;7.25;;;17.00;99.90;;;;;;5133838;27;20042;-76
2023/07/23 12:03:53;;;;;;;12.02;7.90;;;17.00;99.90;;;;;;5140855;27;20098;-76
2023/07/23 12:06:18;;;;;;;9.43;7.03;;;17.00;99.90;;;;;;5141925;27;20524;-77
2023/07/23 12:08:45;;;;;;;13.40;7.70;;;16.90;99.90;;;;;;5138373;27;20144;-76
2023/07/23 12:11:13;;;;;;;10.75;7.43;;;17.00;99.90;;;;;;5145590;27;20099;-76
2023/07/23 12:13:49;;;;;;;9.48;7.88;;;17.00;99.90;;;;;;5141277;27;20035;-76
2023/07/23 12:16:40;;;;;;;10.73;7.18;;;17.00;99.90;;;;;;5151405;27;20046;-77
2023/07/23 12:19:08;;;;;;;9.98;7.15;;;17.00;99.90;;;;;;5142170;27;20035;-78
2023/07/23 12:21:36;;;;;;;9.35;6.93;;;17.10;99.90;;;;;;5145589;27;20046;-77
2023/07/23 12:24:31;;;;;;;7.93;6.22;;;17.30;99.90;;;;;;5153159;27;20034;-77
2023/07/23 12:26:59;;;;;;;10.45;6.53;;;17.50;99.90;;;;;;5133516;27;20049;-77
2023/07/23 12:29:26;;;;;;;8.00;6.43;;;17.60;99.90;;;;;;5142178;27;20039;-78
2023/07/23 12:32:10;;;;;;;10.55;6.20;;;17.70;99.90;;;;;;5139813;27;20031;-77
2023/07/23 12:34:35;;;;;;;8.45;6.60;;;17.80;99.90;;;;;;5146653;27;20493;-77
2023/07/23 12:37:01;;;;;;;8.65;6.40;;;17.90;99.90;;;;;;5146232;27;20039;-76